Time;durP1;ratioP1;P1;durP2;ratioP2;P2;SDS_P1;SDS_P2;PMS_P1;PMS_P2;Temp;Humidity;BMP_temperature;BMP_pressure;BME280_temperature;BME280_humidity;BME280_pressure;Samples;Min_cycle;Max_cycle;Signal;HPM_P1;HPM_P2
2023/12/25 00:02:21;;;;;;;46.95;8.52;;;11.80;99.90;;;;;;5111373;28;20024;-71
2023/12/25 00:04:47;;;;;;;48.40;9.32;;;11.80;99.90;;;;;;5095471;28;20055;-71
2023/12/25 00:07:13;;;;;;;46.90;9.00;;;11.80;99.90;;;;;;5096846;28;20384;-71
2023/12/25 00:09:39;;;;;;;36.47;7.80;;;11.80;99.90;;;;;;5114937;28;20024;-71
2023/12/25 00:12:05;;;;;;;36.63;8.00;;;11.80;99.90;;;;;;5115113;28;20055;-71
2023/12/25 00:14:30;;;;;;;40.20;8.23;;;11.80;99.90;;;;;;5115053;28;20118;-70
2023/12/25 00:16:56;;;;;;;37.63;8.45;;;11.70;99.90;;;;;;5114932;28;20027;-71
2023/12/25 00:19:21;;;;;;;39.38;8.10;;;11.70;99.90;;;;;;5113705;28;20042;-70
2023/12/25 00:21:47;;;;;;;44.20;9.35;;;11.70;99.90;;;;;;5114958;28;20030;-71
2023/12/25 00:24:12;;;;;;;42.00;7.45;;;11.70;99.90;;;;;;5113621;28;20023;-71
2023/12/25 00:26:40;;;;;;;45.50;7.78;;;11.70;99.90;;;;;;5114828;28;20031;-71
2023/12/25 00:29:07;;;;;;;41.92;7.45;;;11.60;99.90;;;;;;5114643;28;20020;-71
2023/12/25 00:31:32;;;;;;;39.65;8.85;;;11.60;99.90;;;;;;5114429;28;20518;-71
2023/12/25 00:33:58;;;;;;;42.78;8.05;;;11.60;99.90;;;;;;5095391;28;20032;-71
2023/12/25 00:36:23;;;;;;;40.97;7.38;;;11.60;99.90;;;;;;5113254;28;20448;-71
2023/12/25 00:38:57;;;;;;;41.30;8.82;;;11.60;99.90;;;;;;5113842;28;20027;-71
2023/12/25 00:41:27;;;;;;;36.65;7.60;;;11.60;99.90;;;;;;5113694;28;20111;-71
2023/12/25 00:43:53;;;;;;;46.28;9.15;;;11.60;99.90;;;;;;5096325;28;20051;-72
2023/12/25 00:46:18;;;;;;;45.47;7.70;;;11.60;99.90;;;;;;5114557;28;20444;-71
2023/12/25 00:48:44;;;;;;;34.70;7.97;;;11.60;99.90;;;;;;5113024;28;20028;-72
2023/12/25 00:51:09;;;;;;;36.72;7.75;;;11.70;99.90;;;;;;5114435;28;20333;-71
2023/12/25 00:53:35;;;;;;;38.42;8.30;;;11.60;99.90;;;;;;5105789;28;20454;-71
2023/12/25 00:56:04;;;;;;;40.20;7.25;;;11.60;99.90;;;;;;5108222;28;20464;-71
2023/12/25 00:58:31;;;;;;;47.92;7.78;;;11.70;99.90;;;;;;5114462;28;20059;-72
2023/12/25 01:00:57;;;;;;;39.22;7.30;;;11.60;99.90;;;;;;5110120;28;20067;-71
2023/12/25 01:03:22;;;;;;;37.05;7.57;;;11.70;99.90;;;;;;5114242;28;20019;-71
2023/12/25 01:06:03;;;;;;;34.28;6.97;;;11.60;99.90;;;;;;5111978;28;20629;-72
2023/12/25 01:08:29;;;;;;;41.07;8.53;;;11.70;99.90;;;;;;5114008;28;20016;-71
2023/12/25 01:10:55;;;;;;;33.05;6.97;;;11.70;99.90;;;;;;5112931;28;20011;-71
2023/12/25 01:13:20;;;;;;;34.50;7.57;;;11.70;99.90;;;;;;5110776;28;20039;-71
2023/12/25 01:15:46;;;;;;;37.10;7.22;;;11.80;99.90;;;;;;5113610;28;20027;-71
2023/12/25 01:18:12;;;;;;;33.08;7.22;;;11.80;99.90;;;;;;5113727;28;20365;-71
2023/12/25 01:20:37;;;;;;;35.88;6.75;;;11.80;99.90;;;;;;5113293;28;20068;-71
2023/12/25 01:23:07;;;;;;;35.83;7.10;;;11.80;99.90;;;;;;5113852;28;20026;-71
2023/12/25 01:25:36;;;;;;;34.38;6.88;;;11.80;99.90;;;;;;5113148;28;20031;-71
2023/12/25 01:28:02;;;;;;;28.48;5.88;;;11.80;99.90;;;;;;5109640;28;20068;-71
2023/12/25 01:30:28;;;;;;;32.30;7.00;;;11.90;99.90;;;;;;5113277;28;20091;-72
2023/12/25 01:32:54;;;;;;;32.85;6.72;;;11.90;99.90;;;;;;5112799;28;20034;-70
2023/12/25 01:35:19;;;;;;;28.15;6.38;;;12.00;99.90;;;;;;5112818;28;20027;-71
2023/12/25 01:37:45;;;;;;;31.75;6.70;;;11.90;99.90;;;;;;5113784;28;20051;-71
2023/12/25 01:40:10;;;;;;;34.90;6.28;;;11.90;99.90;;;;;;5113364;28;20038;-72
2023/12/25 01:42:36;;;;;;;27.65;5.70;;;12.00;99.90;;;;;;5113242;28;20055;-72
2023/12/25 01:45:02;;;;;;;35.38;6.63;;;11.90;99.90;;;;;;5111869;28;20023;-72
2023/12/25 01:47:27;;;;;;;31.42;5.95;;;11.90;99.90;;;;;;5113338;28;20396;-71
2023/12/25 01:49:53;;;;;;;31.27;5.32;;;12.00;99.90;;;;;;5113592;28;20031;-71
2023/12/25 01:52:19;;;;;;;22.30;5.13;;;12.00;99.90;;;;;;5113224;28;20028;-71
2023/12/25 01:54:45;;;;;;;25.35;5.32;;;12.00;99.90;;;;;;5112785;28;20461;-71
2023/12/25 01:57:10;;;;;;;30.70;5.03;;;12.00;99.90;;;;;;5113243;28;20055;-71
2023/12/25 01:59:36;;;;;;;27.52;5.45;;;12.00;99.90;;;;;;5110691;28;20059;-72
2023/12/25 02:02:02;;;;;;;23.88;5.65;;;12.00;99.90;;;;;;5113005;28;20019;-72
2023/12/25 02:04:28;;;;;;;33.45;6.13;;;12.00;99.90;;;;;;5112794;28;20039;-72
2023/12/25 02:06:55;;;;;;;23.67;5.50;;;12.10;99.90;;;;;;5094467;28;20046;-72
2023/12/25 02:09:23;;;;;;;24.20;4.75;;;12.10;99.90;;;;;;5109697;28;20019;-72
2023/12/25 02:11:49;;;;;;;28.77;4.93;;;12.10;99.90;;;;;;5110470;28;20449;-71
2023/12/25 02:14:15;;;;;;;22.02;4.35;;;12.00;99.90;;;;;;5112548;28;20027;-71
2023/12/25 02:16:41;;;;;;;22.05;4.97;;;12.00;99.90;;;;;;5112522;28;20027;-71
2023/12/25 02:19:20;;;;;;;24.95;4.30;;;12.10;99.90;;;;;;5112544;28;20489;-71
2023/12/25 02:21:46;;;;;;;27.63;4.85;;;12.10;99.90;;;;;;5110083;28;20065;-71
2023/12/25 02:24:15;;;;;;;24.75;4.05;;;12.10;99.90;;;;;;5112231;28;20118;-71
2023/12/25 02:26:41;;;;;;;20.40;4.80;;;12.10;99.90;;;;;;5112016;28;20027;-71
2023/12/25 02:29:06;;;;;;;30.70;6.13;;;12.00;99.90;;;;;;5109050;28;20080;-71
2023/12/25 02:31:33;;;;;;;27.65;6.43;;;12.00;99.90;;;;;;5112303;28;20176;-71
2023/12/25 02:33:59;;;;;;;38.22;6.75;;;12.10;99.90;;;;;;5112412;28;20027;-71
2023/12/25 02:36:24;;;;;;;39.10;6.68;;;12.00;99.90;;;;;;5111881;28;20023;-72
2023/12/25 02:38:50;;;;;;;29.20;6.40;;;12.00;99.90;;;;;;5112428;28;20040;-71
2023/12/25 02:41:15;;;;;;;38.60;8.25;;;12.00;99.90;;;;;;5112074;28;20020;-71
2023/12/25 02:43:41;;;;;;;41.25;7.18;;;11.90;99.90;;;;;;5109305;28;20031;-72
2023/12/25 02:46:06;;;;;;;47.42;8.98;;;11.90;99.90;;;;;;5112291;28;20020;-71
2023/12/25 02:48:32;;;;;;;35.63;7.35;;;11.90;99.90;;;;;;5115900;28;20027;-71
2023/12/25 02:50:57;;;;;;;37.90;8.52;;;11.80;99.90;;;;;;5115991;28;20028;-72
2023/12/25 02:53:23;;;;;;;47.58;8.18;;;11.80;99.90;;;;;;5116447;28;20019;-71
2023/12/25 02:55:48;;;;;;;38.03;7.45;;;11.80;99.90;;;;;;5116484;28;20024;-71
2023/12/25 02:58:14;;;;;;;43.72;8.15;;;11.80;99.90;;;;;;5116071;28;20384;-71
2023/12/25 03:00:39;;;;;;;44.03;8.27;;;11.80;99.90;;;;;;5110357;28;20477;-71
2023/12/25 03:03:05;;;;;;;44.15;8.93;;;11.70;99.90;;;;;;5116262;28;20016;-71
2023/12/25 03:05:31;;;;;;;40.17;8.18;;;11.70;99.90;;;;;;5116278;28;20407;-71
2023/12/25 03:07:56;;;;;;;38.47;8.13;;;11.70;99.90;;;;;;5116077;28;20545;-72
2023/12/25 03:10:22;;;;;;;35.67;6.93;;;11.70;99.90;;;;;;5116269;28;20024;-72
2023/12/25 03:12:47;;;;;;;38.42;8.10;;;11.60;99.90;;;;;;5108414;28;20043;-72
2023/12/25 03:15:13;;;;;;;34.95;7.38;;;11.70;99.90;;;;;;5116184;28;20030;-72
2023/12/25 03:17:38;;;;;;;37.78;7.20;;;11.70;99.90;;;;;;5116287;28;20031;-72
2023/12/25 03:20:05;;;;;;;43.20;7.43;;;11.70;99.90;;;;;;5115834;28;20024;-72
2023/12/25 03:22:30;;;;;;;36.30;7.80;;;11.70;99.90;;;;;;5115903;28;20032;-72
2023/12/25 03:24:57;;;;;;;46.92;8.55;;;11.70;99.90;;;;;;5114504;28;20046;-72
2023/12/25 03:27:23;;;;;;;36.78;7.80;;;11.70;99.90;;;;;;5115955;28;20118;-72
2023/12/25 03:29:48;;;;;;;32.90;6.97;;;11.70;99.90;;;;;;5114363;28;20110;-72
2023/12/25 03:32:14;;;;;;;38.30;7.53;;;11.70;99.90;;;;;;5116190;28;20122;-71
2023/12/25 03:34:49;;;;;;;30.63;8.02;;;11.70;99.90;;;;;;5116046;28;20027;-72
2023/12/25 03:37:16;;;;;;;36.83;7.80;;;11.80;99.90;;;;;;5115739;28;20499;-72
2023/12/25 03:39:41;;;;;;;30.33;7.20;;;11.80;99.90;;;;;;5115933;28;20031;-72
2023/12/25 03:42:07;;;;;;;32.38;6.70;;;11.80;99.90;;;;;;5116082;28;20119;-72
2023/12/25 03:44:32;;;;;;;40.22;7.93;;;11.80;99.90;;;;;;5115554;28;20024;-72
2023/12/25 03:46:58;;;;;;;37.38;8.40;;;11.80;99.90;;;;;;5114447;28;20035;-72
2023/12/25 03:49:23;;;;;;;36.83;7.40;;;11.80;99.90;;;;;;5115758;28;20471;-72
2023/12/25 03:51:49;;;;;;;39.75;7.20;;;11.80;99.90;;;;;;5115345;28;20043;-72
2023/12/25 03:54:14;;;;;;;34.97;7.63;;;11.80;99.90;;;;;;5115337;28;20092;-72
2023/12/25 03:56:40;;;;;;;37.42;7.70;;;11.80;99.90;;;;;;5115654;28;20042;-72
2023/12/25 03:59:06;;;;;;;36.90;7.05;;;11.80;99.90;;;;;;5115255;28;20028;-72
2023/12/25 04:01:36;;;;;;;32.33;6.85;;;11.80;99.90;;;;;;5112581;28;20086;-72
2023/12/25 04:04:02;;;;;;;34.08;6.93;;;11.80;99.90;;;;;;5109260;28;20456;-71
2023/12/25 04:06:27;;;;;;;34.38;7.22;;;11.80;99.90;;;;;;5115294;28;20031;-71
2023/12/25 04:08:53;;;;;;;38.78;7.57;;;11.80;99.90;;;;;;5115064;28;20020;-71
2023/12/25 04:11:22;;;;;;;35.92;8.05;;;11.80;99.90;;;;;;5115264;28;20453;-71
2023/12/25 04:13:53;;;;;;;37.88;7.47;;;11.80;99.90;;;;;;5114190;28;20031;-71
2023/12/25 04:16:20;;;;;;;37.58;7.90;;;11.80;99.90;;;;;;5115258;28;20349;-71
2023/12/25 04:18:46;;;;;;;30.23;7.03;;;11.80;99.90;;;;;;5102822;28;20481;-71
2023/12/25 04:21:28;;;;;;;38.33;8.35;;;11.80;99.90;;;;;;5115134;28;20146;-72
2023/12/25 04:23:55;;;;;;;34.13;6.70;;;11.80;99.90;;;;;;5115232;28;20464;-71
2023/12/25 04:26:21;;;;;;;33.95;6.60;;;11.80;99.90;;;;;;5115027;28;20153;-72
2023/12/25 04:28:48;;;;;;;36.97;7.40;;;11.80;99.90;;;;;;5114934;28;20465;-72
2023/12/25 04:31:15;;;;;;;30.60;6.85;;;11.80;99.90;;;;;;5114640;28;20040;-71
2023/12/25 04:33:40;;;;;;;32.08;7.47;;;11.80;99.90;;;;;;5114872;28;20030;-72
2023/12/25 04:36:06;;;;;;;34.15;7.03;;;11.80;99.90;;;;;;5110631;28;20016;-72
2023/12/25 04:38:32;;;;;;;34.10;7.25;;;11.80;99.90;;;;;;5097236;28;20169;-72
2023/12/25 04:40:58;;;;;;;31.20;6.45;;;11.80;99.90;;;;;;5114807;28;20461;-72
2023/12/25 04:43:24;;;;;;;34.13;7.22;;;11.80;99.90;;;;;;5113118;28;20042;-72
2023/12/25 04:45:50;;;;;;;36.70;7.38;;;11.80;99.90;;;;;;5114623;28;20027;-72
2023/12/25 04:48:15;;;;;;;37.88;7.55;;;11.80;99.90;;;;;;5114766;28;20024;-72
2023/12/25 04:50:41;;;;;;;35.63;8.02;;;11.80;99.90;;;;;;5114759;28;20022;-72
2023/12/25 04:53:07;;;;;;;38.42;7.57;;;11.80;99.90;;;;;;5114549;28;20071;-72
2023/12/25 04:55:32;;;;;;;35.85;7.38;;;11.90;99.90;;;;;;5114718;28;20405;-71
2023/12/25 04:57:58;;;;;;;34.33;6.93;;;11.90;99.90;;;;;;5108310;28;20377;-72
2023/12/25 05:00:24;;;;;;;39.95;7.55;;;11.80;99.90;;;;;;5110854;28;20086;-72
2023/12/25 05:02:49;;;;;;;31.85;6.75;;;11.80;99.90;;;;;;5109165;28;20530;-72
2023/12/25 05:05:15;;;;;;;36.88;7.88;;;11.90;99.90;;;;;;5101802;28;20034;-71
2023/12/25 05:07:41;;;;;;;34.75;7.50;;;11.80;99.90;;;;;;5114320;28;20070;-72
2023/12/25 05:10:07;;;;;;;37.33;7.15;;;11.80;99.90;;;;;;5113485;28;20028;-71
2023/12/25 05:12:32;;;;;;;39.75;7.15;;;11.90;99.90;;;;;;5113693;28;20046;-71
2023/12/25 05:14:58;;;;;;;35.42;6.70;;;11.80;99.90;;;;;;5113922;28;20584;-71
2023/12/25 05:17:24;;;;;;;35.67;6.85;;;11.80;99.90;;;;;;5112132;28;20559;-71
2023/12/25 05:19:57;;;;;;;33.72;6.20;;;11.80;99.90;;;;;;5114218;28;20076;-72
2023/12/25 05:22:33;;;;;;;36.03;6.90;;;11.80;99.90;;;;;;5095011;28;20055;-72
2023/12/25 05:25:02;;;;;;;36.15;6.93;;;11.80;99.90;;;;;;5113252;28;20023;-72
2023/12/25 05:27:32;;;;;;;28.95;6.28;;;11.90;99.90;;;;;;5078736;28;20023;-72
2023/12/25 05:30:04;;;;;;;35.83;6.63;;;11.90;99.90;;;;;;5075090;28;20023;-72
2023/12/25 05:32:39;;;;;;;31.85;6.53;;;11.90;99.90;;;;;;5091307;28;20088;-72
2023/12/25 05:35:06;;;;;;;29.98;6.88;;;12.00;99.90;;;;;;5093325;28;20132;-72
2023/12/25 05:37:34;;;;;;;38.97;6.50;;;12.00;99.90;;;;;;5077991;28;20024;-72
2023/12/25 05:40:01;;;;;;;32.67;6.07;;;12.00;99.90;;;;;;5077286;28;20123;-72
2023/12/25 05:42:27;;;;;;;23.02;4.60;;;12.00;99.90;;;;;;5113510;28;20032;-72
2023/12/25 05:44:53;;;;;;;28.70;6.03;;;12.00;99.90;;;;;;5113367;28;20019;-72
2023/12/25 05:47:18;;;;;;;26.85;5.70;;;12.00;99.90;;;;;;5113528;28;20043;-72
2023/12/25 05:49:44;;;;;;;25.35;4.80;;;12.00;99.90;;;;;;5107241;28;20020;-72
2023/12/25 05:52:10;;;;;;;20.85;5.50;;;12.00;99.90;;;;;;5092521;28;20032;-71
2023/12/25 05:54:35;;;;;;;23.27;4.90;;;12.00;99.90;;;;;;5092104;28;20020;-71
2023/12/25 05:57:01;;;;;;;25.83;4.85;;;12.00;99.90;;;;;;5092251;28;20028;-71
2023/12/25 05:59:27;;;;;;;19.92;4.82;;;11.90;99.90;;;;;;5091876;28;20372;-71
2023/12/25 06:01:52;;;;;;;20.60;5.55;;;11.90;99.90;;;;;;5092369;28;20097;-71
2023/12/25 06:04:18;;;;;;;19.80;4.43;;;11.90;99.90;;;;;;5091768;28;20032;-72
2023/12/25 06:06:43;;;;;;;22.90;4.88;;;11.90;99.90;;;;;;5092971;28;20020;-72
2023/12/25 06:09:12;;;;;;;26.98;4.85;;;11.80;99.90;;;;;;5098423;28;20035;-72
2023/12/25 06:11:39;;;;;;;26.92;5.03;;;11.80;99.90;;;;;;5105158;28;20034;-72
2023/12/25 06:14:06;;;;;;;20.38;4.80;;;11.80;99.90;;;;;;5112854;28;20027;-71
2023/12/25 06:16:32;;;;;;;20.45;4.00;;;11.80;99.90;;;;;;5112129;28;20035;-71
2023/12/25 06:18:58;;;;;;;22.67;4.85;;;11.70;99.90;;;;;;5105165;28;20031;-72
2023/12/25 06:21:23;;;;;;;19.00;4.55;;;11.70;99.90;;;;;;5108157;28;20498;-72
2023/12/25 06:23:49;;;;;;;21.73;4.57;;;11.80;99.90;;;;;;5098259;28;20400;-72
2023/12/25 06:26:14;;;;;;;23.70;4.78;;;11.70;99.90;;;;;;5102481;28;20028;-72
2023/12/25 06:28:40;;;;;;;22.73;4.70;;;11.80;99.90;;;;;;5110838;28;20051;-72
2023/12/25 06:31:07;;;;;;;18.75;4.38;;;11.80;99.90;;;;;;5112427;28;20464;-71
2023/12/25 06:33:33;;;;;;;17.70;3.88;;;11.80;99.90;;;;;;5112924;28;20081;-71
2023/12/25 06:35:58;;;;;;;19.95;4.53;;;11.80;99.90;;;;;;5112680;28;20069;-72
2023/12/25 06:38:24;;;;;;;19.05;3.97;;;11.80;99.90;;;;;;5112809;28;20023;-72
2023/12/25 06:40:49;;;;;;;26.10;4.60;;;11.80;99.90;;;;;;5112460;28;20024;-72
2023/12/25 06:43:15;;;;;;;23.13;4.22;;;11.80;99.90;;;;;;5112681;28;20028;-72
2023/12/25 06:45:41;;;;;;;23.10;4.30;;;11.70;99.90;;;;;;5111253;28;20027;-72
2023/12/25 06:48:06;;;;;;;16.85;3.90;;;11.70;99.90;;;;;;5112476;28;20103;-72
2023/12/25 06:50:32;;;;;;;20.30;3.88;;;11.70;99.90;;;;;;5112294;28;20035;-71
2023/12/25 06:52:57;;;;;;;20.30;4.55;;;11.70;99.90;;;;;;5112604;28;20078;-71
2023/12/25 06:55:23;;;;;;;22.80;4.90;;;11.70;99.90;;;;;;5112658;28;20066;-72
2023/12/25 06:57:49;;;;;;;18.33;4.25;;;11.70;99.90;;;;;;5112724;28;20016;-72
2023/12/25 07:00:14;;;;;;;20.45;3.95;;;11.60;99.90;;;;;;5112620;28;20104;-72
2023/12/25 07:02:40;;;;;;;18.73;4.22;;;11.60;99.90;;;;;;5111174;28;20465;-71
2023/12/25 07:05:06;;;;;;;18.40;4.00;;;11.60;99.90;;;;;;5110229;28;20147;-73
2023/12/25 07:07:32;;;;;;;29.05;4.05;;;11.60;99.90;;;;;;5112157;28;20035;-72
2023/12/25 07:09:57;;;;;;;18.42;3.55;;;11.60;99.90;;;;;;5112347;28;20024;-72
2023/12/25 07:12:23;;;;;;;23.15;3.78;;;11.70;99.90;;;;;;5112489;28;20077;-72
2023/12/25 07:14:50;;;;;;;16.02;3.80;;;11.60;99.90;;;;;;5110386;28;20027;-72
2023/12/25 07:17:16;;;;;;;19.63;3.80;;;11.60;99.90;;;;;;5110732;28;20036;-72
2023/12/25 07:19:43;;;;;;;22.95;4.28;;;11.60;99.90;;;;;;5112414;28;20364;-72
2023/12/25 07:22:09;;;;;;;20.35;3.78;;;11.70;99.90;;;;;;5112468;28;20027;-72
2023/12/25 07:24:34;;;;;;;18.55;4.00;;;11.60;99.90;;;;;;5112331;28;20019;-72
2023/12/25 07:27:00;;;;;;;17.92;3.80;;;11.70;99.90;;;;;;5112521;28;20030;-72
2023/12/25 07:29:26;;;;;;;17.33;4.03;;;11.60;99.90;;;;;;5112008;28;20020;-72
2023/12/25 07:31:51;;;;;;;14.88;3.50;;;11.60;99.90;;;;;;5110997;28;20094;-72
2023/12/25 07:34:17;;;;;;;18.00;3.53;;;11.60;99.90;;;;;;5114828;28;20457;-72
2023/12/25 07:36:42;;;;;;;18.10;3.40;;;11.70;99.90;;;;;;5116065;28;20031;-72
2023/12/25 07:39:08;;;;;;;17.92;4.38;;;11.60;99.90;;;;;;5107166;28;20043;-72
2023/12/25 07:41:33;;;;;;;16.67;3.83;;;11.70;99.90;;;;;;5116083;28;20032;-72
2023/12/25 07:44:00;;;;;;;16.77;3.75;;;11.60;99.90;;;;;;5116138;28;20025;-72
2023/12/25 07:46:26;;;;;;;21.98;4.10;;;11.70;99.90;;;;;;5115965;28;20063;-71
2023/12/25 07:48:52;;;;;;;21.88;4.93;;;11.70;99.90;;;;;;5115731;28;20043;-72
2023/12/25 07:51:18;;;;;;;19.40;4.18;;;11.70;99.90;;;;;;5115598;28;20039;-72
2023/12/25 07:53:44;;;;;;;20.63;4.55;;;11.80;99.90;;;;;;5115594;28;20027;-71
2023/12/25 07:56:09;;;;;;;18.15;4.00;;;11.80;99.90;;;;;;5114158;28;20031;-71
2023/12/25 07:58:35;;;;;;;16.52;3.88;;;11.70;99.90;;;;;;5115670;28;20016;-71
2023/12/25 08:01:01;;;;;;;22.45;4.35;;;11.70;99.90;;;;;;5115664;28;20051;-71
2023/12/25 08:03:27;;;;;;;21.95;4.53;;;11.70;99.90;;;;;;5115158;28;20468;-71
2023/12/25 08:05:52;;;;;;;24.85;4.00;;;11.70;99.90;;;;;;5112765;28;20149;-71
2023/12/25 08:08:18;;;;;;;27.17;4.72;;;11.80;99.90;;;;;;5115329;28;20457;-71
2023/12/25 08:10:43;;;;;;;20.08;4.20;;;11.70;99.90;;;;;;5096970;28;20030;-71
2023/12/25 08:13:09;;;;;;;17.98;4.47;;;11.60;99.90;;;;;;5115018;28;20039;-71
2023/12/25 08:15:35;;;;;;;24.55;4.97;;;11.50;99.90;;;;;;5115105;28;20030;-71
2023/12/25 08:18:00;;;;;;;25.63;4.22;;;11.50;99.90;;;;;;5115013;28;20031;-71
2023/12/25 08:20:26;;;;;;;20.73;4.75;;;11.50;99.90;;;;;;5114508;28;20024;-71
2023/12/25 08:22:51;;;;;;;23.33;4.72;;;11.50;99.90;;;;;;5113535;28;20439;-72
2023/12/25 08:25:17;;;;;;;23.98;4.32;;;11.40;99.90;;;;;;5114602;28;20473;-71
2023/12/25 08:27:43;;;;;;;23.50;4.38;;;11.40;99.90;;;;;;5114642;28;20047;-73
2023/12/25 08:30:11;;;;;;;22.80;4.25;;;11.40;99.90;;;;;;5114712;28;20047;-71
2023/12/25 08:32:36;;;;;;;32.00;4.63;;;11.50;99.90;;;;;;5114214;28;20115;-72
2023/12/25 08:35:03;;;;;;;20.85;4.38;;;11.50;99.90;;;;;;5114776;28;20118;-71
2023/12/25 08:37:29;;;;;;;23.13;4.07;;;11.50;99.90;;;;;;5111871;28;20040;-71
2023/12/25 08:39:54;;;;;;;26.02;4.05;;;11.50;99.90;;;;;;5114103;28;20020;-71
2023/12/25 08:42:20;;;;;;;20.23;3.83;;;11.50;99.90;;;;;;5114200;28;20495;-71
2023/12/25 08:44:47;;;;;;;19.67;3.95;;;11.50;99.90;;;;;;5113276;28;20035;-72
2023/12/25 08:47:14;;;;;;;23.88;4.97;;;11.50;99.90;;;;;;5114049;28;20035;-71
2023/12/25 08:49:40;;;;;;;25.58;4.07;;;11.60;99.90;;;;;;5096871;28;20020;-71
2023/12/25 08:52:06;;;;;;;25.60;4.90;;;11.60;99.90;;;;;;5111393;28;20047;-71
2023/12/25 08:54:31;;;;;;;23.83;4.13;;;11.60;99.90;;;;;;5100782;28;20032;-72
2023/12/25 08:56:59;;;;;;;26.42;4.45;;;11.70;99.90;;;;;;5103096;28;20131;-72
2023/12/25 08:59:24;;;;;;;24.23;4.05;;;11.80;99.90;;;;;;5112153;28;20028;-72
2023/12/25 09:01:51;;;;;;;26.63;4.50;;;11.80;99.90;;;;;;5114303;28;20056;-71
2023/12/25 09:04:16;;;;;;;24.58;4.22;;;11.90;99.90;;;;;;5113694;28;20059;-72
2023/12/25 09:06:42;;;;;;;25.42;4.65;;;11.90;99.90;;;;;;5111023;28;20129;-72
2023/12/25 09:09:09;;;;;;;21.50;4.22;;;11.90;99.90;;;;;;5113163;28;20043;-73
2023/12/25 09:11:35;;;;;;;26.58;4.75;;;11.90;99.90;;;;;;5109507;28;20056;-73
2023/12/25 09:14:01;;;;;;;23.08;4.05;;;12.00;99.90;;;;;;5113471;28;20108;-73
2023/12/25 09:16:28;;;;;;;25.10;3.83;;;12.00;99.90;;;;;;5113412;28;20023;-73
2023/12/25 09:18:54;;;;;;;22.20;4.32;;;12.00;99.90;;;;;;5113438;28;20031;-71
2023/12/25 09:21:20;;;;;;;21.00;3.53;;;12.10;99.90;;;;;;5111423;28;20037;-72
2023/12/25 09:23:46;;;;;;;24.83;4.07;;;12.10;99.90;;;;;;5095546;28;20107;-71
2023/12/25 09:26:18;;;;;;;18.73;4.38;;;12.10;99.90;;;;;;5114094;28;20059;-72
2023/12/25 09:28:44;;;;;;;23.05;3.70;;;12.10;99.90;;;;;;5111540;28;20068;-72
2023/12/25 09:31:11;;;;;;;24.38;4.00;;;12.10;99.90;;;;;;5113060;28;20032;-72
2023/12/25 09:33:37;;;;;;;28.88;4.15;;;12.10;99.90;;;;;;5113433;28;20099;-71
2023/12/25 09:36:03;;;;;;;25.92;4.03;;;12.10;99.90;;;;;;5112187;28;20115;-72
2023/12/25 09:38:28;;;;;;;24.27;3.90;;;12.20;99.90;;;;;;5113664;28;20102;-72
2023/12/25 09:40:57;;;;;;;21.65;3.95;;;12.10;99.90;;;;;;5095235;28;20032;-71
2023/12/25 09:43:24;;;;;;;21.05;4.30;;;12.10;99.90;;;;;;5113304;28;20036;-72
2023/12/25 09:45:50;;;;;;;24.48;4.00;;;12.20;99.90;;;;;;5094590;28;20043;-72
2023/12/25 09:48:19;;;;;;;23.15;3.83;;;12.20;99.90;;;;;;5101909;28;20035;-72
2023/12/25 09:50:45;;;;;;;28.55;4.35;;;12.20;99.90;;;;;;5113376;28;20043;-72
2023/12/25 09:53:11;;;;;;;21.45;3.58;;;12.20;99.90;;;;;;5113611;28;20461;-72
2023/12/25 09:55:37;;;;;;;23.45;4.68;;;12.30;99.90;;;;;;5111417;28;20106;-71
2023/12/25 09:58:10;;;;;;;19.63;4.13;;;12.30;99.90;;;;;;5112695;28;20112;-72
2023/12/25 10:00:36;;;;;;;21.48;4.07;;;12.30;99.90;;;;;;5112608;28;20112;-72
2023/12/25 10:03:04;;;;;;;18.00;3.63;;;12.40;99.90;;;;;;5113591;28;20464;-71
2023/12/25 10:05:29;;;;;;;20.48;3.70;;;12.40;99.90;;;;;;5104627;28;20104;-71
2023/12/25 10:07:55;;;;;;;18.92;3.80;;;12.40;99.90;;;;;;5106807;28;20108;-73
2023/12/25 10:10:30;;;;;;;20.00;4.13;;;12.50;99.90;;;;;;5100354;28;20207;-72
2023/12/25 10:12:58;;;;;;;20.85;3.78;;;12.50;99.90;;;;;;5093522;28;20475;-72
2023/12/25 10:15:23;;;;;;;25.58;4.10;;;12.50;99.90;;;;;;5103882;28;20035;-72
2023/12/25 10:18:01;;;;;;;19.80;3.28;;;12.60;99.90;;;;;;5113198;28;20426;-72
2023/12/25 10:20:27;;;;;;;19.85;3.42;;;12.60;99.90;;;;;;5113201;28;20031;-72
2023/12/25 10:22:52;;;;;;;19.55;4.40;;;12.50;99.90;;;;;;5112956;28;20027;-72
2023/12/25 10:25:18;;;;;;;20.38;3.72;;;12.50;99.90;;;;;;5112707;28;20031;-74
2023/12/25 10:27:44;;;;;;;16.25;3.13;;;12.50;99.90;;;;;;5113078;28;20365;-73
2023/12/25 10:30:21;;;;;;;19.85;3.90;;;12.50;99.90;;;;;;5111236;28;20030;-74
2023/12/25 10:32:47;;;;;;;17.58;3.28;;;12.60;99.90;;;;;;5112382;28;20043;-73
2023/12/25 10:35:18;;;;;;;20.20;3.10;;;12.60;99.90;;;;;;5111952;28;20028;-73
2023/12/25 10:37:45;;;;;;;15.75;3.30;;;12.60;99.90;;;;;;5093207;28;20141;-74
2023/12/25 10:40:24;;;;;;;19.58;3.75;;;12.70;99.90;;;;;;5112048;28;20028;-72
2023/12/25 10:42:52;;;;;;;20.85;3.00;;;12.70;99.90;;;;;;5108083;28;20036;-72
2023/12/25 10:45:26;;;;;;;19.08;3.50;;;12.70;99.90;;;;;;5110909;28;20030;-73
2023/12/25 10:47:57;;;;;;;19.30;3.83;;;12.70;99.90;;;;;;5111258;28;20028;-73
2023/12/25 10:50:27;;;;;;;16.77;3.05;;;12.70;99.90;;;;;;5111539;28;20126;-72
2023/12/25 10:53:01;;;;;;;23.55;3.80;;;12.80;99.90;;;;;;5112586;28;20054;-72
2023/12/25 10:55:43;;;;;;;19.52;3.60;;;12.80;99.90;;;;;;5111981;28;20162;-72
2023/12/25 10:58:12;;;;;;;23.20;3.58;;;12.90;99.90;;;;;;5107221;28;20031;-73
2023/12/25 11:01:05;;;;;;;20.17;3.40;;;13.00;99.90;;;;;;5108686;28;20075;-73
2023/12/25 11:03:32;;;;;;;22.65;3.33;;;13.00;99.90;;;;;;5111451;28;20028;-73
2023/12/25 11:06:05;;;;;;;19.88;3.20;;;13.10;99.90;;;;;;5106903;28;20591;-73
2023/12/25 11:08:32;;;;;;;17.85;3.10;;;13.20;99.90;;;;;;5113069;28;20074;-74
2023/12/25 11:11:01;;;;;;;17.02;2.88;;;13.20;99.90;;;;;;5112607;28;20031;-74
2023/12/25 11:13:33;;;;;;;14.80;3.65;;;13.20;99.90;;;;;;5115337;28;20076;-72
2023/12/25 11:15:58;;;;;;;14.98;2.95;;;13.20;99.90;;;;;;5112514;28;20104;-73
2023/12/25 11:18:24;;;;;;;19.92;3.33;;;13.20;99.90;;;;;;5115052;28;20073;-71
2023/12/25 11:21:10;;;;;;;16.35;2.97;;;13.40;99.90;;;;;;5115122;28;20434;-73
2023/12/25 11:23:41;;;;;;;15.60;3.00;;;13.70;99.90;;;;;;5113278;28;20083;-73
2023/12/25 11:26:07;;;;;;;19.60;3.10;;;14.00;99.90;;;;;;5115576;28;20019;-73
2023/12/25 11:28:40;;;;;;;11.77;2.63;;;14.40;99.90;;;;;;5096851;28;20032;-73
2023/12/25 11:31:24;;;;;;;15.52;2.95;;;14.80;99.90;;;;;;5114832;28;20516;-73
2023/12/25 11:34:10;;;;;;;16.90;2.83;;;15.10;99.90;;;;;;5114717;28;20023;-73
2023/12/25 11:36:37;;;;;;;12.75;2.60;;;15.30;99.90;;;;;;5125566;27;20400;-73
2023/12/25 11:39:03;;;;;;;12.85;2.70;;;15.30;99.90;;;;;;5113331;28;20070;-73
2023/12/25 11:41:37;;;;;;;16.15;2.80;;;15.20;99.90;;;;;;5114497;28;20438;-73
2023/12/25 11:44:14;;;;;;;18.02;3.22;;;15.10;99.90;;;;;;5115506;28;20047;-73
2023/12/25 11:46:52;;;;;;;16.77;3.00;;;15.00;99.90;;;;;;5114738;28;20028;-73
2023/12/25 11:49:20;;;;;;;15.00;2.67;;;15.00;99.90;;;;;;5113626;28;20076;-73
2023/12/25 11:51:51;;;;;;;13.43;3.25;;;14.90;99.90;;;;;;5111650;28;20491;-73
2023/12/25 11:54:17;;;;;;;17.17;3.17;;;15.10;99.90;;;;;;5114690;28;20031;-73
2023/12/25 11:56:44;;;;;;;14.25;2.95;;;15.00;99.90;;;;;;5113865;28;20027;-72
2023/12/25 11:59:10;;;;;;;20.40;3.20;;;15.20;99.90;;;;;;5113831;28;20031;-73
2023/12/25 12:01:39;;;;;;;17.75;2.80;;;15.10;99.90;;;;;;5113845;28;20469;-72
2023/12/25 12:04:17;;;;;;;15.63;3.15;;;15.10;99.90;;;;;;5114433;28;20054;-73
2023/12/25 12:06:43;;;;;;;13.35;2.80;;;15.20;99.90;;;;;;5115042;28;20031;-73
2023/12/25 12:09:14;;;;;;;11.15;2.22;;;15.40;99.90;;;;;;5114762;28;20042;-73
2023/12/25 12:12:09;;;;;;;14.52;3.47;;;15.70;99.90;;;;;;5113609;28;20034;-73
2023/12/25 12:14:37;;;;;;;13.18;3.22;;;15.70;99.90;;;;;;5112209;28;20111;-73
2023/12/25 12:17:16;;;;;;;14.32;2.92;;;15.60;99.90;;;;;;5093325;28;20059;-74
2023/12/25 12:19:41;;;;;;;17.67;2.80;;;15.50;99.90;;;;;;5096568;28;20019;-73
2023/12/25 12:22:08;;;;;;;17.30;2.83;;;15.40;99.90;;;;;;5114522;28;20040;-74
2023/12/25 12:24:33;;;;;;;19.58;3.42;;;15.30;99.90;;;;;;5114717;28;20038;-71
2023/12/25 12:27:08;;;;;;;17.85;2.80;;;15.10;99.90;;;;;;5114154;28;20028;-72
2023/12/25 12:29:34;;;;;;;14.45;2.45;;;15.10;99.90;;;;;;5112142;28;20016;-72
2023/12/25 12:32:00;;;;;;;21.33;2.83;;;14.90;99.90;;;;;;5113724;28;20053;-72
2023/12/25 12:34:29;;;;;;;15.18;2.60;;;15.00;99.90;;;;;;5113858;28;20028;-73
2023/12/25 12:37:04;;;;;;;14.20;2.85;;;15.20;99.90;;;;;;5114242;28;20153;-72